sensor_id;sensor_type;location;lat;lon;timestamp;P1;durP1;ratioP1;P2;durP2;ratioP2
13588;SDS011;6865;52.552;13.434;2023-03-14T00:01:24;1.97;;;1.40;;
13588;SDS011;6865;52.552;13.434;2023-03-14T00:03:51;4.23;;;1.30;;
13588;SDS011;6865;52.552;13.434;2023-03-14T00:06:18;2.07;;;1.03;;
13588;SDS011;6865;52.552;13.434;2023-03-14T00:08:45;1.90;;;1.10;;
13588;SDS011;6865;52.552;13.434;2023-03-14T00:11:17;1.40;;;1.07;;
13588;SDS011;6865;52.552;13.434;2023-03-14T00:13:49;1.83;;;1.20;;
13588;SDS011;6865;52.552;13.434;2023-03-14T00:16:17;3.30;;;1.47;;
13588;SDS011;6865;52.552;13.434;2023-03-14T00:18:44;2.73;;;1.70;;
13588;SDS011;6865;52.552;13.434;2023-03-14T00:21:11;2.37;;;1.30;;
13588;SDS011;6865;52.552;13.434;2023-03-14T00:23:39;2.73;;;1.50;;
13588;SDS011;6865;52.552;13.434;2023-03-14T00:26:08;2.83;;;1.30;;
13588;SDS011;6865;52.552;13.434;2023-03-14T00:28:40;1.47;;;1.20;;
13588;SDS011;6865;52.552;13.434;2023-03-14T00:31:08;1.87;;;1.30;;
13588;SDS011;6865;52.552;13.434;2023-03-14T00:33:36;2.30;;;1.50;;
13588;SDS011;6865;52.552;13.434;2023-03-14T00:36:04;2.50;;;1.50;;
13588;SDS011;6865;52.552;13.434;2023-03-14T00:38:35;2.40;;;1.03;;
13588;SDS011;6865;52.552;13.434;2023-03-14T00:41:03;4.73;;;1.20;;
13588;SDS011;6865;52.552;13.434;2023-03-14T00:43:33;1.37;;;1.10;;
13588;SDS011;6865;52.552;13.434;2023-03-14T00:46:00;2.97;;;1.40;;
13588;SDS011;6865;52.552;13.434;2023-03-14T00:48:27;4.17;;;1.33;;
13588;SDS011;6865;52.552;13.434;2023-03-14T00:50:54;1.87;;;1.27;;
13588;SDS011;6865;52.552;13.434;2023-03-14T00:53:21;1.60;;;1.10;;
13588;SDS011;6865;52.552;13.434;2023-03-14T00:55:48;2.97;;;1.30;;
13588;SDS011;6865;52.552;13.434;2023-03-14T00:58:15;1.37;;;1.10;;
13588;SDS011;6865;52.552;13.434;2023-03-14T01:00:43;2.00;;;1.10;;
13588;SDS011;6865;52.552;13.434;2023-03-14T01:03:10;2.17;;;1.30;;
13588;SDS011;6865;52.552;13.434;2023-03-14T01:05:38;1.40;;;1.23;;
13588;SDS011;6865;52.552;13.434;2023-03-14T01:08:05;1.57;;;1.10;;
13588;SDS011;6865;52.552;13.434;2023-03-14T01:10:33;1.47;;;1.20;;
13588;SDS011;6865;52.552;13.434;2023-03-14T01:13:00;2.10;;;1.33;;
13588;SDS011;6865;52.552;13.434;2023-03-14T01:15:27;2.83;;;1.50;;
13588;SDS011;6865;52.552;13.434;2023-03-14T01:17:54;1.77;;;1.30;;
13588;SDS011;6865;52.552;13.434;2023-03-14T01:20:20;1.37;;;1.10;;
13588;SDS011;6865;52.552;13.434;2023-03-14T01:22:47;2.57;;;1.20;;
13588;SDS011;6865;52.552;13.434;2023-03-14T01:25:14;2.03;;;1.20;;
13588;SDS011;6865;52.552;13.434;2023-03-14T01:27:42;1.37;;;1.20;;
13588;SDS011;6865;52.552;13.434;2023-03-14T01:30:10;1.50;;;1.20;;
13588;SDS011;6865;52.552;13.434;2023-03-14T01:32:38;2.00;;;1.37;;
13588;SDS011;6865;52.552;13.434;2023-03-14T01:35:05;2.37;;;1.50;;
13588;SDS011;6865;52.552;13.434;2023-03-14T01:37:32;2.20;;;1.27;;
13588;SDS011;6865;52.552;13.434;2023-03-14T01:39:59;1.90;;;1.10;;
13588;SDS011;6865;52.552;13.434;2023-03-14T01:42:26;1.90;;;1.30;;
13588;SDS011;6865;52.552;13.434;2023-03-14T01:44:56;2.23;;;1.20;;
13588;SDS011;6865;52.552;13.434;2023-03-14T01:47:25;4.10;;;1.13;;
13588;SDS011;6865;52.552;13.434;2023-03-14T01:52:45;2.00;;;1.10;;
13588;SDS011;6865;52.552;13.434;2023-03-14T01:55:15;7.30;;;1.30;;
13588;SDS011;6865;52.552;13.434;2023-03-14T01:57:52;2.70;;;1.20;;
13588;SDS011;6865;52.552;13.434;2023-03-14T02:00:24;1.93;;;1.13;;
13588;SDS011;6865;52.552;13.434;2023-03-14T02:02:55;2.40;;;1.20;;
13588;SDS011;6865;52.552;13.434;2023-03-14T02:05:31;4.07;;;1.20;;
13588;SDS011;6865;52.552;13.434;2023-03-14T02:08:01;1.50;;;1.10;;
13588;SDS011;6865;52.552;13.434;2023-03-14T02:10:34;1.53;;;1.10;;
13588;SDS011;6865;52.552;13.434;2023-03-14T02:13:05;2.13;;;1.10;;
13588;SDS011;6865;52.552;13.434;2023-03-14T02:15:32;1.30;;;1.00;;
13588;SDS011;6865;52.552;13.434;2023-03-14T02:18:00;3.70;;;1.23;;
13588;SDS011;6865;52.552;13.434;2023-03-14T02:23:28;1.53;;;0.90;;
13588;SDS011;6865;52.552;13.434;2023-03-14T02:26:10;1.40;;;1.20;;
13588;SDS011;6865;52.552;13.434;2023-03-14T02:28:42;1.47;;;1.03;;
13588;SDS011;6865;52.552;13.434;2023-03-14T02:31:09;1.90;;;1.10;;
13588;SDS011;6865;52.552;13.434;2023-03-14T02:33:36;2.07;;;1.20;;
13588;SDS011;6865;52.552;13.434;2023-03-14T02:36:05;2.23;;;1.00;;
13588;SDS011;6865;52.552;13.434;2023-03-14T02:38:37;1.93;;;1.03;;
13588;SDS011;6865;52.552;13.434;2023-03-14T02:41:26;4.30;;;1.13;;
13588;SDS011;6865;52.552;13.434;2023-03-14T02:43:54;1.60;;;1.23;;
13588;SDS011;6865;52.552;13.434;2023-03-14T02:46:21;1.47;;;1.07;;
13588;SDS011;6865;52.552;13.434;2023-03-14T02:48:53;1.97;;;0.90;;
13588;SDS011;6865;52.552;13.434;2023-03-14T02:51:33;1.63;;;1.10;;
13588;SDS011;6865;52.552;13.434;2023-03-14T02:54:01;1.23;;;1.10;;
13588;SDS011;6865;52.552;13.434;2023-03-14T02:56:28;1.17;;;1.00;;
13588;SDS011;6865;52.552;13.434;2023-03-14T02:58:54;1.13;;;0.97;;
13588;SDS011;6865;52.552;13.434;2023-03-14T03:01:23;1.20;;;0.83;;
13588;SDS011;6865;52.552;13.434;2023-03-14T03:03:51;2.07;;;0.80;;
13588;SDS011;6865;52.552;13.434;2023-03-14T03:06:18;2.67;;;1.07;;
13588;SDS011;6865;52.552;13.434;2023-03-14T03:08:45;1.20;;;1.10;;
13588;SDS011;6865;52.552;13.434;2023-03-14T03:11:11;1.27;;;0.97;;
13588;SDS011;6865;52.552;13.434;2023-03-14T03:13:38;1.17;;;1.00;;
13588;SDS011;6865;52.552;13.434;2023-03-14T03:16:05;2.20;;;0.97;;
13588;SDS011;6865;52.552;13.434;2023-03-14T03:18:32;1.20;;;0.93;;
13588;SDS011;6865;52.552;13.434;2023-03-14T03:20:59;1.10;;;1.00;;
13588;SDS011;6865;52.552;13.434;2023-03-14T03:23:30;1.47;;;0.97;;
13588;SDS011;6865;52.552;13.434;2023-03-14T03:25:56;1.17;;;1.07;;
13588;SDS011;6865;52.552;13.434;2023-03-14T03:28:23;1.07;;;0.90;;
13588;SDS011;6865;52.552;13.434;2023-03-14T03:30:50;3.03;;;1.30;;
13588;SDS011;6865;52.552;13.434;2023-03-14T03:33:17;1.83;;;0.90;;
13588;SDS011;6865;52.552;13.434;2023-03-14T03:35:44;1.13;;;0.90;;
13588;SDS011;6865;52.552;13.434;2023-03-14T03:38:13;1.47;;;0.97;;
13588;SDS011;6865;52.552;13.434;2023-03-14T03:40:40;1.10;;;1.00;;
13588;SDS011;6865;52.552;13.434;2023-03-14T03:43:07;2.17;;;1.20;;
13588;SDS011;6865;52.552;13.434;2023-03-14T03:45:34;1.30;;;1.07;;
13588;SDS011;6865;52.552;13.434;2023-03-14T03:48:01;1.93;;;1.00;;
13588;SDS011;6865;52.552;13.434;2023-03-14T03:50:27;4.63;;;1.13;;
13588;SDS011;6865;52.552;13.434;2023-03-14T03:52:54;1.40;;;0.90;;
13588;SDS011;6865;52.552;13.434;2023-03-14T03:55:20;1.10;;;1.00;;
13588;SDS011;6865;52.552;13.434;2023-03-14T03:57:47;1.63;;;1.10;;
13588;SDS011;6865;52.552;13.434;2023-03-14T04:00:14;1.20;;;1.10;;
13588;SDS011;6865;52.552;13.434;2023-03-14T04:02:40;1.30;;;1.10;;
13588;SDS011;6865;52.552;13.434;2023-03-14T04:05:07;0.97;;;0.87;;
13588;SDS011;6865;52.552;13.434;2023-03-14T04:07:34;1.50;;;1.00;;
13588;SDS011;6865;52.552;13.434;2023-03-14T04:10:01;1.20;;;0.90;;
13588;SDS011;6865;52.552;13.434;2023-03-14T04:12:28;1.50;;;1.10;;
13588;SDS011;6865;52.552;13.434;2023-03-14T04:14:54;1.50;;;0.83;;
13588;SDS011;6865;52.552;13.434;2023-03-14T04:17:21;1.03;;;0.90;;
13588;SDS011;6865;52.552;13.434;2023-03-14T04:19:48;0.80;;;0.80;;
13588;SDS011;6865;52.552;13.434;2023-03-14T04:22:17;1.23;;;1.03;;
13588;SDS011;6865;52.552;13.434;2023-03-14T04:24:44;1.10;;;1.00;;
13588;SDS011;6865;52.552;13.434;2023-03-14T04:27:10;1.10;;;1.00;;
13588;SDS011;6865;52.552;13.434;2023-03-14T04:29:37;1.30;;;0.90;;
13588;SDS011;6865;52.552;13.434;2023-03-14T04:32:03;1.57;;;0.97;;
13588;SDS011;6865;52.552;13.434;2023-03-14T04:34:30;3.10;;;1.27;;
13588;SDS011;6865;52.552;13.434;2023-03-14T04:36:57;1.13;;;0.90;;
13588;SDS011;6865;52.552;13.434;2023-03-14T04:39:23;1.73;;;1.20;;
13588;SDS011;6865;52.552;13.434;2023-03-14T04:41:50;1.10;;;1.00;;
13588;SDS011;6865;52.552;13.434;2023-03-14T04:44:16;1.13;;;0.90;;
13588;SDS011;6865;52.552;13.434;2023-03-14T04:46:43;1.10;;;0.93;;
13588;SDS011;6865;52.552;13.434;2023-03-14T04:49:10;1.83;;;1.20;;
13588;SDS011;6865;52.552;13.434;2023-03-14T04:51:36;1.80;;;1.00;;
13588;SDS011;6865;52.552;13.434;2023-03-14T04:54:03;1.30;;;0.90;;
13588;SDS011;6865;52.552;13.434;2023-03-14T04:56:30;1.40;;;1.10;;
13588;SDS011;6865;52.552;13.434;2023-03-14T04:58:57;1.60;;;1.10;;
13588;SDS011;6865;52.552;13.434;2023-03-14T05:01:23;2.10;;;1.03;;
13588;SDS011;6865;52.552;13.434;2023-03-14T05:03:50;1.93;;;1.00;;
13588;SDS011;6865;52.552;13.434;2023-03-14T05:06:17;1.33;;;1.10;;
13588;SDS011;6865;52.552;13.434;2023-03-14T05:08:43;1.40;;;1.00;;
13588;SDS011;6865;52.552;13.434;2023-03-14T05:11:11;1.43;;;1.10;;
13588;SDS011;6865;52.552;13.434;2023-03-14T05:13:39;1.30;;;1.20;;
13588;SDS011;6865;52.552;13.434;2023-03-14T05:16:06;1.60;;;0.93;;
13588;SDS011;6865;52.552;13.434;2023-03-14T05:18:34;1.83;;;1.20;;
13588;SDS011;6865;52.552;13.434;2023-03-14T05:21:01;3.47;;;1.00;;
13588;SDS011;6865;52.552;13.434;2023-03-14T05:23:28;2.37;;;1.60;;
13588;SDS011;6865;52.552;13.434;2023-03-14T05:25:55;2.20;;;1.13;;
13588;SDS011;6865;52.552;13.434;2023-03-14T05:28:22;3.60;;;1.47;;
13588;SDS011;6865;52.552;13.434;2023-03-14T05:30:49;3.33;;;1.10;;
13588;SDS011;6865;52.552;13.434;2023-03-14T05:33:15;1.30;;;1.07;;
13588;SDS011;6865;52.552;13.434;2023-03-14T05:35:42;4.60;;;1.50;;
13588;SDS011;6865;52.552;13.434;2023-03-14T05:38:09;2.03;;;1.30;;
13588;SDS011;6865;52.552;13.434;2023-03-14T05:40:35;1.60;;;1.07;;
13588;SDS011;6865;52.552;13.434;2023-03-14T05:43:02;1.50;;;1.10;;
13588;SDS011;6865;52.552;13.434;2023-03-14T05:45:29;2.80;;;1.50;;
13588;SDS011;6865;52.552;13.434;2023-03-14T05:47:55;1.70;;;1.20;;
13588;SDS011;6865;52.552;13.434;2023-03-14T05:50:22;1.50;;;0.90;;
13588;SDS011;6865;52.552;13.434;2023-03-14T05:52:49;1.57;;;1.10;;
13588;SDS011;6865;52.552;13.434;2023-03-14T05:55:15;1.77;;;1.17;;
13588;SDS011;6865;52.552;13.434;2023-03-14T05:57:42;2.17;;;1.40;;
13588;SDS011;6865;52.552;13.434;2023-03-14T06:00:12;1.47;;;1.30;;
13588;SDS011;6865;52.552;13.434;2023-03-14T06:02:39;2.77;;;1.30;;
13588;SDS011;6865;52.552;13.434;2023-03-14T06:05:06;1.87;;;1.13;;
13588;SDS011;6865;52.552;13.434;2023-03-14T06:07:33;2.67;;;1.10;;
13588;SDS011;6865;52.552;13.434;2023-03-14T06:10:00;3.23;;;1.17;;
13588;SDS011;6865;52.552;13.434;2023-03-14T06:12:26;3.63;;;1.20;;
13588;SDS011;6865;52.552;13.434;2023-03-14T06:14:54;4.13;;;1.43;;
13588;SDS011;6865;52.552;13.434;2023-03-14T06:17:21;1.97;;;1.10;;
13588;SDS011;6865;52.552;13.434;2023-03-14T06:19:47;2.27;;;1.40;;
13588;SDS011;6865;52.552;13.434;2023-03-14T06:22:14;2.50;;;1.30;;
13588;SDS011;6865;52.552;13.434;2023-03-14T06:24:40;1.60;;;1.13;;
13588;SDS011;6865;52.552;13.434;2023-03-14T06:27:07;3.43;;;1.43;;
13588;SDS011;6865;52.552;13.434;2023-03-14T06:29:34;3.00;;;1.47;;
13588;SDS011;6865;52.552;13.434;2023-03-14T06:32:00;6.00;;;1.87;;
13588;SDS011;6865;52.552;13.434;2023-03-14T06:34:27;10.77;;;2.17;;
13588;SDS011;6865;52.552;13.434;2023-03-14T06:36:54;4.23;;;2.10;;
13588;SDS011;6865;52.552;13.434;2023-03-14T06:39:20;4.10;;;1.50;;
13588;SDS011;6865;52.552;13.434;2023-03-14T06:41:47;2.80;;;1.50;;
13588;SDS011;6865;52.552;13.434;2023-03-14T06:44:13;7.43;;;1.67;;
13588;SDS011;6865;52.552;13.434;2023-03-14T06:46:40;3.73;;;2.20;;
13588;SDS011;6865;52.552;13.434;2023-03-14T06:49:07;1.90;;;1.30;;
13588;SDS011;6865;52.552;13.434;2023-03-14T06:51:33;3.23;;;1.30;;
13588;SDS011;6865;52.552;13.434;2023-03-14T06:54:01;3.43;;;1.33;;
13588;SDS011;6865;52.552;13.434;2023-03-14T06:56:27;5.17;;;1.57;;
13588;SDS011;6865;52.552;13.434;2023-03-14T06:58:55;3.53;;;1.30;;
13588;SDS011;6865;52.552;13.434;2023-03-14T07:01:25;2.43;;;1.37;;
13588;SDS011;6865;52.552;13.434;2023-03-14T07:03:53;4.17;;;1.50;;
13588;SDS011;6865;52.552;13.434;2023-03-14T07:06:20;4.40;;;1.30;;
13588;SDS011;6865;52.552;13.434;2023-03-14T07:08:47;3.27;;;1.50;;
13588;SDS011;6865;52.552;13.434;2023-03-14T07:11:14;2.40;;;1.20;;
13588;SDS011;6865;52.552;13.434;2023-03-14T07:13:41;2.40;;;1.23;;
13588;SDS011;6865;52.552;13.434;2023-03-14T07:16:07;4.37;;;1.90;;
13588;SDS011;6865;52.552;13.434;2023-03-14T07:18:35;6.30;;;1.77;;
13588;SDS011;6865;52.552;13.434;2023-03-14T07:21:03;3.33;;;1.40;;
13588;SDS011;6865;52.552;13.434;2023-03-14T07:23:35;4.37;;;1.30;;
13588;SDS011;6865;52.552;13.434;2023-03-14T07:26:01;2.87;;;1.60;;
13588;SDS011;6865;52.552;13.434;2023-03-14T07:28:28;4.23;;;1.53;;
13588;SDS011;6865;52.552;13.434;2023-03-14T07:30:55;4.37;;;1.63;;
13588;SDS011;6865;52.552;13.434;2023-03-14T07:33:22;4.17;;;1.70;;
13588;SDS011;6865;52.552;13.434;2023-03-14T07:35:48;4.40;;;1.63;;
13588;SDS011;6865;52.552;13.434;2023-03-14T07:38:15;6.07;;;1.53;;
13588;SDS011;6865;52.552;13.434;2023-03-14T07:40:42;4.90;;;1.50;;
13588;SDS011;6865;52.552;13.434;2023-03-14T07:43:09;2.40;;;1.30;;
13588;SDS011;6865;52.552;13.434;2023-03-14T07:45:36;5.87;;;1.37;;
13588;SDS011;6865;52.552;13.434;2023-03-14T07:48:08;3.30;;;1.40;;
13588;SDS011;6865;52.552;13.434;2023-03-14T07:50:35;4.53;;;1.60;;
13588;SDS011;6865;52.552;13.434;2023-03-14T07:53:02;3.30;;;1.70;;
13588;SDS011;6865;52.552;13.434;2023-03-14T07:55:29;6.40;;;1.53;;
13588;SDS011;6865;52.552;13.434;2023-03-14T07:57:55;3.23;;;1.53;;
13588;SDS011;6865;52.552;13.434;2023-03-14T08:00:22;2.67;;;1.57;;
13588;SDS011;6865;52.552;13.434;2023-03-14T08:02:49;3.27;;;1.47;;
13588;SDS011;6865;52.552;13.434;2023-03-14T08:05:16;3.17;;;1.63;;
13588;SDS011;6865;52.552;13.434;2023-03-14T08:07:43;5.60;;;1.43;;
13588;SDS011;6865;52.552;13.434;2023-03-14T08:10:12;3.33;;;1.50;;
13588;SDS011;6865;52.552;13.434;2023-03-14T08:12:46;4.97;;;1.60;;
13588;SDS011;6865;52.552;13.434;2023-03-14T08:15:16;2.53;;;1.53;;
13588;SDS011;6865;52.552;13.434;2023-03-14T08:17:43;3.77;;;1.40;;
13588;SDS011;6865;52.552;13.434;2023-03-14T08:20:10;5.07;;;1.53;;
13588;SDS011;6865;52.552;13.434;2023-03-14T08:22:38;7.60;;;2.10;;
13588;SDS011;6865;52.552;13.434;2023-03-14T08:25:05;4.10;;;1.80;;
13588;SDS011;6865;52.552;13.434;2023-03-14T08:27:32;5.33;;;1.80;;
13588;SDS011;6865;52.552;13.434;2023-03-14T08:29:58;3.70;;;1.73;;
13588;SDS011;6865;52.552;13.434;2023-03-14T08:32:25;7.70;;;1.77;;
13588;SDS011;6865;52.552;13.434;2023-03-14T08:34:51;6.37;;;1.77;;
13588;SDS011;6865;52.552;13.434;2023-03-14T08:37:18;4.47;;;1.53;;
13588;SDS011;6865;52.552;13.434;2023-03-14T08:39:51;4.50;;;2.00;;
13588;SDS011;6865;52.552;13.434;2023-03-14T08:42:19;6.20;;;1.67;;
13588;SDS011;6865;52.552;13.434;2023-03-14T08:44:45;2.20;;;1.60;;
13588;SDS011;6865;52.552;13.434;2023-03-14T08:47:12;3.97;;;1.70;;
13588;SDS011;6865;52.552;13.434;2023-03-14T08:49:39;4.47;;;1.77;;
13588;SDS011;6865;52.552;13.434;2023-03-14T08:52:06;3.33;;;1.70;;
13588;SDS011;6865;52.552;13.434;2023-03-14T08:54:32;4.40;;;1.63;;
13588;SDS011;6865;52.552;13.434;2023-03-14T08:56:59;4.90;;;2.20;;
13588;SDS011;6865;52.552;13.434;2023-03-14T08:59:26;3.23;;;1.77;;
13588;SDS011;6865;52.552;13.434;2023-03-14T09:01:52;4.57;;;1.50;;
13588;SDS011;6865;52.552;13.434;2023-03-14T09:04:20;4.43;;;2.00;;
13588;SDS011;6865;52.552;13.434;2023-03-14T09:06:47;5.67;;;1.50;;
13588;SDS011;6865;52.552;13.434;2023-03-14T09:09:14;3.30;;;1.63;;
13588;SDS011;6865;52.552;13.434;2023-03-14T09:11:41;5.50;;;1.50;;
13588;SDS011;6865;52.552;13.434;2023-03-14T09:14:07;5.07;;;1.60;;
13588;SDS011;6865;52.552;13.434;2023-03-14T09:16:34;3.73;;;1.67;;
13588;SDS011;6865;52.552;13.434;2023-03-14T09:19:01;2.97;;;1.60;;
13588;SDS011;6865;52.552;13.434;2023-03-14T09:21:27;5.00;;;1.63;;
13588;SDS011;6865;52.552;13.434;2023-03-14T09:23:54;3.50;;;1.60;;
13588;SDS011;6865;52.552;13.434;2023-03-14T09:26:21;6.07;;;2.27;;
13588;SDS011;6865;52.552;13.434;2023-03-14T09:28:47;3.87;;;1.57;;
13588;SDS011;6865;52.552;13.434;2023-03-14T09:31:15;4.70;;;1.40;;
13588;SDS011;6865;52.552;13.434;2023-03-14T09:33:42;3.53;;;1.70;;
13588;SDS011;6865;52.552;13.434;2023-03-14T09:36:08;7.47;;;1.90;;
13588;SDS011;6865;52.552;13.434;2023-03-14T09:38:35;3.63;;;1.70;;
13588;SDS011;6865;52.552;13.434;2023-03-14T09:41:03;6.73;;;1.63;;
13588;SDS011;6865;52.552;13.434;2023-03-14T09:44:10;2.77;;;1.33;;
13588;SDS011;6865;52.552;13.434;2023-03-14T09:46:43;6.00;;;1.57;;
13588;SDS011;6865;52.552;13.434;2023-03-14T09:49:36;4.43;;;1.60;;
13588;SDS011;6865;52.552;13.434;2023-03-14T09:52:11;7.80;;;1.83;;
13588;SDS011;6865;52.552;13.434;2023-03-14T09:54:50;5.60;;;1.60;;
13588;SDS011;6865;52.552;13.434;2023-03-14T09:57:20;2.60;;;1.37;;
13588;SDS011;6865;52.552;13.434;2023-03-14T09:59:50;4.40;;;1.60;;
13588;SDS011;6865;52.552;13.434;2023-03-14T10:02:24;5.17;;;1.80;;
13588;SDS011;6865;52.552;13.434;2023-03-14T10:04:54;4.33;;;1.60;;
13588;SDS011;6865;52.552;13.434;2023-03-14T10:07:28;2.33;;;1.33;;
13588;SDS011;6865;52.552;13.434;2023-03-14T10:09:56;4.93;;;1.40;;
13588;SDS011;6865;52.552;13.434;2023-03-14T10:12:34;4.53;;;1.50;;
13588;SDS011;6865;52.552;13.434;2023-03-14T10:15:04;6.87;;;1.70;;
13588;SDS011;6865;52.552;13.434;2023-03-14T10:17:41;5.30;;;1.70;;
13588;SDS011;6865;52.552;13.434;2023-03-14T10:20:26;6.83;;;1.57;;
13588;SDS011;6865;52.552;13.434;2023-03-14T10:25:42;3.83;;;1.40;;
13588;SDS011;6865;52.552;13.434;2023-03-14T10:28:24;2.93;;;1.33;;
13588;SDS011;6865;52.552;13.434;2023-03-14T10:30:53;6.10;;;1.67;;
13588;SDS011;6865;52.552;13.434;2023-03-14T10:33:25;6.07;;;1.70;;
13588;SDS011;6865;52.552;13.434;2023-03-14T10:38:33;3.77;;;1.53;;
13588;SDS011;6865;52.552;13.434;2023-03-14T10:41:01;4.17;;;1.80;;
13588;SDS011;6865;52.552;13.434;2023-03-14T10:43:40;4.70;;;1.40;;
13588;SDS011;6865;52.552;13.434;2023-03-14T10:46:17;5.17;;;1.60;;
13588;SDS011;6865;52.552;13.434;2023-03-14T10:48:45;4.37;;;1.27;;
13588;SDS011;6865;52.552;13.434;2023-03-14T10:51:46;3.67;;;1.50;;
13588;SDS011;6865;52.552;13.434;2023-03-14T10:54:19;4.93;;;1.50;;
13588;SDS011;6865;52.552;13.434;2023-03-14T10:56:57;4.43;;;1.67;;
13588;SDS011;6865;52.552;13.434;2023-03-14T10:59:30;3.47;;;1.40;;
13588;SDS011;6865;52.552;13.434;2023-03-14T11:05:11;2.70;;;1.30;;
13588;SDS011;6865;52.552;13.434;2023-03-14T11:07:53;2.40;;;1.20;;
13588;SDS011;6865;52.552;13.434;2023-03-14T11:10:34;4.70;;;1.30;;
13588;SDS011;6865;52.552;13.434;2023-03-14T11:13:16;4.67;;;1.60;;
13588;SDS011;6865;52.552;13.434;2023-03-14T11:16:06;3.00;;;1.20;;
13588;SDS011;6865;52.552;13.434;2023-03-14T11:21:20;2.83;;;1.10;;
13588;SDS011;6865;52.552;13.434;2023-03-14T11:24:08;3.10;;;1.47;;
13588;SDS011;6865;52.552;13.434;2023-03-14T11:26:56;3.83;;;1.27;;
13588;SDS011;6865;52.552;13.434;2023-03-14T11:29:39;3.13;;;1.50;;
13588;SDS011;6865;52.552;13.434;2023-03-14T11:32:41;4.37;;;1.30;;
13588;SDS011;6865;52.552;13.434;2023-03-14T11:35:16;1.87;;;1.00;;
13588;SDS011;6865;52.552;13.434;2023-03-14T11:37:47;1.90;;;1.00;;
13588;SDS011;6865;52.552;13.434;2023-03-14T11:40:31;3.27;;;1.33;;
13588;SDS011;6865;52.552;13.434;2023-03-14T11:45:42;2.43;;;1.30;;
13588;SDS011;6865;52.552;13.434;2023-03-14T11:50:59;2.97;;;1.23;;
13588;SDS011;6865;52.552;13.434;2023-03-14T11:53:36;2.00;;;1.10;;
13588;SDS011;6865;52.552;13.434;2023-03-14T11:56:34;3.33;;;1.33;;
13588;SDS011;6865;52.552;13.434;2023-03-14T11:59:12;3.83;;;2.00;;
13588;SDS011;6865;52.552;13.434;2023-03-14T12:07:08;3.40;;;1.47;;
13588;SDS011;6865;52.552;13.434;2023-03-14T12:09:44;3.07;;;1.23;;
13588;SDS011;6865;52.552;13.434;2023-03-14T12:12:12;2.33;;;1.10;;
13588;SDS011;6865;52.552;13.434;2023-03-14T12:14:45;3.43;;;2.00;;
13588;SDS011;6865;52.552;13.434;2023-03-14T12:17:20;3.07;;;1.60;;
13588;SDS011;6865;52.552;13.434;2023-03-14T12:20:05;1.80;;;1.00;;
13588;SDS011;6865;52.552;13.434;2023-03-14T12:22:50;2.20;;;1.20;;
13588;SDS011;6865;52.552;13.434;2023-03-14T12:25:20;0.87;;;0.80;;
13588;SDS011;6865;52.552;13.434;2023-03-14T12:43:38;3.47;;;1.73;;
13588;SDS011;6865;52.552;13.434;2023-03-14T12:48:53;3.37;;;1.40;;
13588;SDS011;6865;52.552;13.434;2023-03-14T12:51:42;12.20;;;1.33;;
13588;SDS011;6865;52.552;13.434;2023-03-14T12:54:21;2.50;;;1.30;;
13588;SDS011;6865;52.552;13.434;2023-03-14T12:56:56;2.60;;;1.30;;
13588;SDS011;6865;52.552;13.434;2023-03-14T13:00:18;4.73;;;1.40;;
13588;SDS011;6865;52.552;13.434;2023-03-14T13:02:42;3.07;;;1.30;;
13588;SDS011;6865;52.552;13.434;2023-03-14T13:05:23;4.80;;;1.20;;
13588;SDS011;6865;52.552;13.434;2023-03-14T13:10:25;2.77;;;1.50;;
13588;SDS011;6865;52.552;13.434;2023-03-14T13:13:14;3.53;;;1.20;;
13588;SDS011;6865;52.552;13.434;2023-03-14T13:15:45;2.73;;;1.00;;
13588;SDS011;6865;52.552;13.434;2023-03-14T13:18:16;3.43;;;1.50;;
13588;SDS011;6865;52.552;13.434;2023-03-14T13:21:06;3.27;;;1.40;;
13588;SDS011;6865;52.552;13.434;2023-03-14T13:23:39;1.70;;;1.17;;
13588;SDS011;6865;52.552;13.434;2023-03-14T13:26:09;2.93;;;1.13;;
13588;SDS011;6865;52.552;13.434;2023-03-14T13:28:40;1.77;;;0.97;;
13588;SDS011;6865;52.552;13.434;2023-03-14T13:31:12;1.73;;;1.03;;
13588;SDS011;6865;52.552;13.434;2023-03-14T13:33:59;2.10;;;1.00;;
13588;SDS011;6865;52.552;13.434;2023-03-14T13:36:26;2.50;;;1.00;;
13588;SDS011;6865;52.552;13.434;2023-03-14T13:39:00;1.30;;;0.97;;
13588;SDS011;6865;52.552;13.434;2023-03-14T13:41:28;2.03;;;1.23;;
13588;SDS011;6865;52.552;13.434;2023-03-14T13:44:01;2.30;;;1.10;;
13588;SDS011;6865;52.552;13.434;2023-03-14T13:46:32;3.43;;;1.50;;
13588;SDS011;6865;52.552;13.434;2023-03-14T13:49:01;2.60;;;1.40;;
13588;SDS011;6865;52.552;13.434;2023-03-14T13:51:30;1.60;;;1.03;;
13588;SDS011;6865;52.552;13.434;2023-03-14T13:54:01;1.80;;;0.97;;
13588;SDS011;6865;52.552;13.434;2023-03-14T13:56:31;2.23;;;1.17;;
13588;SDS011;6865;52.552;13.434;2023-03-14T13:58:58;3.07;;;1.10;;
13588;SDS011;6865;52.552;13.434;2023-03-14T14:01:26;2.83;;;1.20;;
13588;SDS011;6865;52.552;13.434;2023-03-14T14:03:58;2.57;;;1.50;;
13588;SDS011;6865;52.552;13.434;2023-03-14T14:11:58;1.20;;;1.00;;
13588;SDS011;6865;52.552;13.434;2023-03-14T14:14:47;1.17;;;0.90;;
13588;SDS011;6865;52.552;13.434;2023-03-14T14:17:33;0.93;;;0.77;;
13588;SDS011;6865;52.552;13.434;2023-03-14T14:20:08;1.00;;;0.80;;
13588;SDS011;6865;52.552;13.434;2023-03-14T14:22:58;0.70;;;0.70;;
13588;SDS011;6865;52.552;13.434;2023-03-14T14:25:28;2.63;;;1.30;;
13588;SDS011;6865;52.552;13.434;2023-03-14T14:27:56;1.90;;;1.00;;
13588;SDS011;6865;52.552;13.434;2023-03-14T14:30:28;1.03;;;0.90;;
13588;SDS011;6865;52.552;13.434;2023-03-14T14:35:49;1.80;;;0.90;;
13588;SDS011;6865;52.552;13.434;2023-03-14T14:38:21;1.50;;;1.00;;
13588;SDS011;6865;52.552;13.434;2023-03-14T14:40:49;1.70;;;0.93;;
13588;SDS011;6865;52.552;13.434;2023-03-14T14:43:20;1.00;;;0.90;;
13588;SDS011;6865;52.552;13.434;2023-03-14T14:45:53;2.37;;;1.13;;
13588;SDS011;6865;52.552;13.434;2023-03-14T14:48:22;1.03;;;0.90;;
13588;SDS011;6865;52.552;13.434;2023-03-14T14:50:55;1.50;;;0.90;;
13588;SDS011;6865;52.552;13.434;2023-03-14T14:53:42;0.70;;;0.70;;
13588;SDS011;6865;52.552;13.434;2023-03-14T14:56:19;1.30;;;0.93;;
13588;SDS011;6865;52.552;13.434;2023-03-14T14:58:55;1.47;;;1.00;;
13588;SDS011;6865;52.552;13.434;2023-03-14T15:01:34;2.50;;;1.40;;
13588;SDS011;6865;52.552;13.434;2023-03-14T15:04:04;3.73;;;1.10;;
13588;SDS011;6865;52.552;13.434;2023-03-14T15:06:40;2.17;;;0.97;;
13588;SDS011;6865;52.552;13.434;2023-03-14T15:09:12;0.70;;;0.70;;
13588;SDS011;6865;52.552;13.434;2023-03-14T15:11:39;1.27;;;0.90;;
13588;SDS011;6865;52.552;13.434;2023-03-14T15:14:06;2.97;;;1.00;;
13588;SDS011;6865;52.552;13.434;2023-03-14T15:16:33;1.67;;;1.00;;
13588;SDS011;6865;52.552;13.434;2023-03-14T15:19:01;2.17;;;1.07;;
13588;SDS011;6865;52.552;13.434;2023-03-14T15:21:49;1.77;;;0.80;;
13588;SDS011;6865;52.552;13.434;2023-03-14T15:24:15;4.73;;;1.20;;
13588;SDS011;6865;52.552;13.434;2023-03-14T15:26:42;2.10;;;0.80;;
13588;SDS011;6865;52.552;13.434;2023-03-14T15:29:10;1.63;;;0.70;;
13588;SDS011;6865;52.552;13.434;2023-03-14T15:31:39;1.30;;;0.67;;
13588;SDS011;6865;52.552;13.434;2023-03-14T15:34:07;1.00;;;0.73;;
13588;SDS011;6865;52.552;13.434;2023-03-14T15:36:35;1.20;;;0.63;;
13588;SDS011;6865;52.552;13.434;2023-03-14T15:39:03;1.27;;;0.70;;
13588;SDS011;6865;52.552;13.434;2023-03-14T15:41:32;0.93;;;0.50;;
13588;SDS011;6865;52.552;13.434;2023-03-14T15:43:58;0.90;;;0.60;;
13588;SDS011;6865;52.552;13.434;2023-03-14T15:46:25;1.13;;;0.50;;
13588;SDS011;6865;52.552;13.434;2023-03-14T15:48:54;0.50;;;0.50;;
13588;SDS011;6865;52.552;13.434;2023-03-14T15:51:21;0.37;;;0.37;;
13588;SDS011;6865;52.552;13.434;2023-03-14T15:53:48;2.40;;;0.70;;
13588;SDS011;6865;52.552;13.434;2023-03-14T15:56:18;2.30;;;0.80;;
13588;SDS011;6865;52.552;13.434;2023-03-14T15:58:46;1.37;;;0.83;;
13588;SDS011;6865;52.552;13.434;2023-03-14T16:01:13;3.50;;;0.90;;
13588;SDS011;6865;52.552;13.434;2023-03-14T16:03:45;2.87;;;0.97;;